Webcam

2022/06/29 05:20 EBBR 290520Z 19003KT CAVOK 17/15 Q1014 NOSIG

Webcam

--- Refresh now ---